ID Time Temp Humidity Light PM2.5 PM10 Voltage Extra Firmware Position Fcnt TTN version Gateways Distance RSSI LSNR Radiosettings
2021-07-09 12:57:08 31.5625°C 45.1875% 3.32V 0,0,0,0,0,0,0,0,0,0,0,0 v255 52.0895 / 5.17188 1529 ttn.v2 1.504km -119 -13.2 867.1MHz, SF9BW125, 4/5CR
2021-07-09 11:50:55 31.25°C 46.0625% 3.32V 0,0,0,0,0,0,0,0,0,0,0,0 v255 52.0895 / 5.17188 1527 ttn.v2 3.73km -121 -8.2 867.9MHz, SF9BW125, 4/5CR
2021-07-09 10:44:47 30.625°C 48.75% 3.32V 0,0,0,0,0,0,0,0,0,0,0,0 v255 52.0895 / 5.17188 1525 ttn.v2 11.969km -109 -7.8 867.7MHz, SF9BW125, 4/5CR
- -122 -13.25 867.7MHz, SF9BW125, 4/5CR
2021-07-09 09:38:40 27.5°C 56.125% 3.32V 0,0,0,0,0,0,0,0,0,0,0,0 v255 52.0895 / 5.17188 1523 ttn.v2 1.491km -116 -10.5 867.5MHz, SF9BW125, 4/5CR
2021-07-09 09:05:39 27.375°C 56.25% 3.32V 0,0,0,0,0,0,0,0,0,0,0,0 v255 52.0895 / 5.17188 1522 ttn.v2 1.492km -117 -9.2 868.5MHz, SF9BW125, 4/5CR
2021-07-09 08:32:38 25°C 62.6875% 3.32V 0,0,0,0,0,0,0,0,0,0,0,0 v255 52.0895 / 5.17188 1521 ttn.v2 3.73km -120 -8.2 867.3MHz, SF9BW125, 4/5CR
1.496km -117 -9.8 867.3MHz, SF9BW125, 4/5CR
15.609km -117 -10 867.3MHz, SF9BW125, 4/5CR
2021-07-09 07:26:42 21.375°C 75.375% 3.33V 0,0,0,0,0,0,0,0,0,0,0,0 v255 52.0895 / 5.17188 1519 ttn.v2 3.729km -120 -6.8 867.1MHz, SF9BW125, 4/5CR
15.609km -119 -7.5 867.1MHz, SF9BW125, 4/5CR
11.971km -119 -9 867.1MHz, SF9BW125, 4/5CR
1.493km -118 -13 867.1MHz, SF9BW125, 4/5CR
2021-07-09 06:20:52 16.625°C 84.0625% 3.33V 0,0,0,0,0,0,0,0,0,0,0,0 v255 52.0895 / 5.17188 1517 ttn.v2 15.609km -120 -4 867.9MHz, SF9BW125, 4/5CR
2021-07-09 05:47:58 16.1875°C 84.5625% 3.32V 0,0,0,0,0,0,0,0,0,0,0,0 v255 52.0895 / 5.17188 1516 ttn.v2 1.49km -118 -13.75 868.5MHz, SF9BW125, 4/5CR
1.49km -118 -13.8 868.5MHz, SF9BW125, 4/5CR
2021-07-09 05:15:05 16.1875°C 84.5% 3.33V 0,0,0,0,0,0,0,0,0,0,0,0 v255 52.0895 / 5.17188 1515 ttn.v2 3.73km -119 -5.5 867.7MHz, SF9BW125, 4/5CR
1.497km -116 -9 867.7MHz, SF9BW125, 4/5CR
11.975km -119 -9.2 867.7MHz, SF9BW125, 4/5CR
2021-07-09 04:09:18 16.5°C 84.4375% 3.32V 0,0,0,0,0,0,0,0,0,0,0,0 v255 52.0895 / 5.17188 1513 ttn.v2 1.492km -119 -8.2 867.5MHz, SF9BW125, 4/5CR
3.731km -118 -11.8 867.5MHz, SF9BW125, 4/5CR
2021-07-09 03:03:30 17.125°C 84% 3.32V 0,0,0,0,0,0,0,0,0,0,0,0 v255 52.0895 / 5.17188 1511 ttn.v2 11.976km -113 -1.2 867.3MHz, SF9BW125, 4/5CR
15.609km -114 -7.5 867.3MHz, SF9BW125, 4/5CR
1.496km -118 -8.2 867.3MHz, SF9BW125, 4/5CR
3.729km -120 -9 867.3MHz, SF9BW125, 4/5CR
2021-07-09 01:57:41 17.9375°C 83.5% 3.33V 0,0,0,0,0,0,0,0,0,0,0,0 v255 52.0895 / 5.17188 1509 ttn.v2 15.609km -118 -3.5 867.1MHz, SF9BW125, 4/5CR
3.729km -121 -5.2 867.1MHz, SF9BW125, 4/5CR
11.977km -120 -9.8 867.1MHz, SF9BW125, 4/5CR
1.512km -118 -12.2 867.1MHz, SF9BW125, 4/5CR
2021-07-09 01:24:46 18.5°C 82.1875% 3.32V 0,0,0,0,0,0,0,0,0,0,0,0 v255 52.0895 / 5.17188 1508 ttn.v2 15.609km -111 -6.5 868.3MHz, SF9BW125, 4/5CR
2021-07-09 00:51:51 19.0625°C 79.875% 3.33V 0,0,0,0,0,0,0,0,0,0,0,0 v255 52.0895 / 5.17188 1507 ttn.v2 15.609km -118 -7 867.9MHz, SF9BW125, 4/5CR
1.491km -118 -8 867.9MHz, SF9BW125, 4/5CR
3.728km -120 -9 867.9MHz, SF9BW125, 4/5CR
2021-07-09 00:18:55 19.5625°C 77.375% 3.32V 0,0,0,0,0,0,0,0,0,0,0,0 v255 52.0895 / 5.17188 1506 ttn.v2 1.489km -118 -13.2 868.1MHz, SF9BW125, 4/5CR
2021-07-08 23:45:59 20.125°C 74.8125% 3.32V 0,0,0,0,0,0,0,0,0,0,0,0 v255 52.0895 / 5.17188 1505 ttn.v2 3.728km -120 -6.5 867.7MHz, SF9BW125, 4/5CR
11.973km -119 -8.2 867.7MHz, SF9BW125, 4/5CR
1.504km -117 -9.2 867.7MHz, SF9BW125, 4/5CR
2021-07-08 22:40:06 21.0625°C 72.1875% 3.32V 0,0,0,0,0,0,0,0,0,0,0,0 v255 52.0895 / 5.17188 1503 ttn.v2 1.476km -115 -8.2 867.5MHz, SF9BW125, 4/5CR
- -123 -12.75 867.5MHz, SF9BW125, 4/5CR
2021-07-08 21:34:10 23.0625°C 66.0625% 3.32V 0,0,0,0,0,0,0,0,0,0,0,0 v255 52.0895 / 5.17188 1501 ttn.v2 11.974km -117 -4 867.3MHz, SF9BW125, 4/5CR
3.731km -119 -8.5 867.3MHz, SF9BW125, 4/5CR
15.609km -117 -8.5 867.3MHz, SF9BW125, 4/5CR
1.501km -117 -10.2 867.3MHz, SF9BW125, 4/5CR
2021-07-08 21:01:11 24.75°C 61.125% 3.33V 0,0,0,0,0,0,0,0,0,0,0,0 v255 52.0895 / 5.17188 1500 ttn.v2 15.609km -117 -11.8 868.1MHz, SF9BW125, 4/5CR
2021-07-08 20:28:11 25.75°C 57.6875% 3.32V 0,0,0,0,0,0,0,0,0,0,0,0 v255 52.0895 / 5.17188 1499 ttn.v2 15.609km -119 -8 867.1MHz, SF9BW125, 4/5CR
11.972km -120 -8 867.1MHz, SF9BW125, 4/5CR
2021-07-08 19:55:09 27.1875°C 53.875% 3.32V 0,0,0,0,0,0,0,0,0,0,0,0 v255 52.0895 / 5.17188 1498 ttn.v2 1.501km -119 -13.2 868.5MHz, SF9BW125, 4/5CR
2021-07-08 19:22:07 28.6875°C 50.9375% 3.32V 0,0,0,0,0,0,0,0,0,0,0,0 v255 52.0895 / 5.17188 1497 ttn.v2 3.729km -125 -7.8 867.9MHz, SF9BW125, 4/5CR
1.493km -117 -10.5 867.9MHz, SF9BW125, 4/5CR
2021-07-08 18:49:02 29.8125°C 48.8125% 3.32V 0,0,0,0,0,0,0,0,0,0,0,0 v255 52.0895 / 5.17188 1496 ttn.v2 15.609km -111 -11.2 868.3MHz, SF9BW125, 4/5CR
2021-07-08 18:15:57 28.0625°C 54% 3.32V 0,0,0,0,0,0,0,0,0,0,0,0 v255 52.0895 / 5.17188 1495 ttn.v2 3.728km -120 -7.8 867.7MHz, SF9BW125, 4/5CR
11.974km -117 -8.5 867.7MHz, SF9BW125, 4/5CR
2021-07-08 17:09:50 29°C 50.125% 3.32V 0,0,0,0,0,0,0,0,0,0,0,0 v255 52.0895 / 5.17188 1493 ttn.v2 1.481km -115 -10.5 867.5MHz, SF9BW125, 4/5CR
2021-07-08 16:03:38 33.625°C 39.5625% 3.32V 0,0,0,0,0,0,0,0,0,0,0,0 v255 52.0895 / 5.17188 1491 ttn.v2 15.609km -116 -6.8 867.3MHz, SF9BW125, 4/5CR
3.729km -120 -10.8 867.3MHz, SF9BW125, 4/5CR
2021-07-08 14:57:25 29.75°C 45.5% 3.32V 0,0,0,0,0,0,0,0,0,0,0,0 v255 52.0895 / 5.17188 1489 ttn.v2 3.728km -121 -5.5 867.1MHz, SF9BW125, 4/5CR
11.972km -117 -8.8 867.1MHz, SF9BW125, 4/5CR
2021-07-08 14:24:19 32.0625°C 38.5625% 3.32V 0,0,0,0,0,0,0,0,0,0,0,0 v255 52.0895 / 5.17188 1488 ttn.v2 3.728km -120 -13 868.1MHz, SF9BW125, 4/5CR
2021-07-08 13:51:12 31.4375°C 41% 3.32V 0,0,0,0,0,0,0,0,0,0,0,0 v255 52.0895 / 5.17188 1487 ttn.v2 3.728km -120 -5.2 867.9MHz, SF9BW125, 4/5CR
1.494km -120 -10.2 867.9MHz, SF9BW125, 4/5CR
2021-07-08 12:44:56 32.1875°C 39.75% 3.32V 0,0,0,0,0,0,0,0,0,0,0,0 v255 52.0895 / 5.17188 1485 ttn.v2 3.729km -117 -8.2 867.7MHz, SF9BW125, 4/5CR
2021-07-08 12:11:47 34.8125°C 36.6875% 3.32V 0,0,0,0,0,0,0,0,0,0,0,0 v255 52.0895 / 5.17188 1484 ttn.v2 15.609km -114 -13.5 868.3MHz, SF9BW125, 4/5CR
2021-07-08 11:38:40 30.9375°C 44.875% 3.32V 0,0,0,0,0,0,0,0,0,0,0,0 v255 52.0895 / 5.17188 1483 ttn.v2 1.493km -117 -9.8 867.5MHz, SF9BW125, 4/5CR
- -122 -12.25 867.5MHz, SF9BW125, 4/5CR
2021-07-08 10:32:32 28.375°C 50.0625% 3.33V 0,0,0,0,0,0,0,0,0,0,0,0 v255 52.0895 / 5.17188 1481 ttn.v2 11.969km -115 -1.5 867.3MHz, SF9BW125, 4/5CR
15.609km -117 -6 867.3MHz, SF9BW125, 4/5CR
1.489km -118 -13 867.3MHz, SF9BW125, 4/5CR
2021-07-08 09:26:29 26.0625°C 52.125% 3.32V 0,0,0,0,0,0,0,0,0,0,0,0 v255 52.0895 / 5.17188 1479 ttn.v2 3.729km -120 -4 867.1MHz, SF9BW125, 4/5CR
11.971km -119 -7.2 867.1MHz, SF9BW125, 4/5CR
2021-07-08 08:20:27 22.5°C 84.625% 3.32V 0,0,0,0,0,0,0,0,0,0,0,0 v255 52.0895 / 5.17188 1477 ttn.v2 15.609km -117 -3.8 867.9MHz, SF9BW125, 4/5CR
1.485km -120 -9.2 867.9MHz, SF9BW125, 4/5CR
2021-07-08 07:47:30 20.875°C 87.5625% 3.32V 0,0,0,0,0,0,0,0,0,0,0,0 v255 52.0895 / 5.17188 1476 ttn.v2 3.73km -120 -9.5 868.1MHz, SF9BW125, 4/5CR
15.609km -117 -10.8 868.1MHz, SF9BW125, 4/5CR
2021-07-08 07:14:34 18.9375°C 91.9375% 3.33V 0,0,0,0,0,0,0,0,0,0,0,0 v255 52.0895 / 5.17188 1475 ttn.v2 3.729km -119 -5.2 867.7MHz, SF9BW125, 4/5CR
11.969km -117 -11.8 867.7MHz, SF9BW125, 4/5CR
1.495km -116 -12.5 867.7MHz, SF9BW125, 4/5CR
2021-07-08 06:41:39 18°C 92.0625% 3.32V 0,0,0,0,0,0,0,0,0,0,0,0 v255 52.0895 / 5.17188 1474 ttn.v2 1.492km -117 -13.8 868.5MHz, SF9BW125, 4/5CR
2021-07-08 06:08:45 17°C 92.5% 3.33V 0,0,0,0,0,0,0,0,0,0,0,0 v255 52.0895 / 5.17188 1473 ttn.v2 1.489km -118 -9.8 867.5MHz, SF9BW125, 4/5CR
3.728km -118 -11.5 867.5MHz, SF9BW125, 4/5CR
2021-07-08 05:02:57 16.4375°C 91.25% 3.32V 0,0,0,0,0,0,0,0,0,0,0,0 v255 52.0895 / 5.17188 1471 ttn.v2 11.975km -117 -2.2 867.3MHz, SF9BW125, 4/5CR
15.609km -119 -8.2 867.3MHz, SF9BW125, 4/5CR
3.731km -119 -12 867.3MHz, SF9BW125, 4/5CR
2021-07-08 04:30:03 16.6875°C 92.125% 3.33V 0,0,0,0,0,0,0,0,0,0,0,0 v255 52.0895 / 5.17188 1470 ttn.v2 1.488km -118 -13 868.1MHz, SF9BW125, 4/5CR
2021-07-08 03:57:09 16.875°C 91.8125% 3.32V 0,0,0,0,0,0,0,0,0,0,0,0 v255 52.0895 / 5.17188 1469 ttn.v2 3.731km -121 -6 867.1MHz, SF9BW125, 4/5CR
15.609km -118 -7.5 867.1MHz, SF9BW125, 4/5CR
2021-07-08 03:24:15 16.75°C 90.4375% 3.32V 0,0,0,0,0,0,0,0,0,0,0,0 v255 52.0895 / 5.17188 1468 ttn.v2 1.495km -119 -11.2 868.5MHz, SF9BW125, 4/5CR
2021-07-08 02:51:21 16.4375°C 88.375% 3.32V 0,0,0,0,0,0,0,0,0,0,0,0 v255 52.0895 / 5.17188 1467 ttn.v2 1.491km -118 -8 867.9MHz, SF9BW125, 4/5CR
3.729km -119 -10 867.9MHz, SF9BW125, 4/5CR
2021-07-08 02:18:27 16.5625°C 88.25% 3.32V 0,0,0,0,0,0,0,0,0,0,0,0 v255 52.0895 / 5.17188 1466 ttn.v2 15.609km -108 -10.8 868.3MHz, SF9BW125, 4/5CR
2021-07-08 01:45:34 16.75°C 88.4375% 3.32V 0,0,0,0,0,0,0,0,0,0,0,0 v255 52.0895 / 5.17188 1465 ttn.v2 3.73km -120 -4.8 867.7MHz, SF9BW125, 4/5CR
11.97km -119 -12 867.7MHz, SF9BW125, 4/5CR
1.482km -117 -12.8 867.7MHz, SF9BW125, 4/5CR
2021-07-08 01:12:40 17°C 88.125% 3.33V 0,0,0,0,0,0,0,0,0,0,0,0 v255 52.0895 / 5.17188 1464 ttn.v2 3.729km -120 -10.2 868.1MHz, SF9BW125, 4/5CR
1.492km -119 -13 868.1MHz, SF9BW125, 4/5CR
2021-07-08 00:39:45 17.25°C 87.625% 3.33V 0,0,0,0,0,0,0,0,0,0,0,0 v255 52.0895 / 5.17188 1463 ttn.v2 1.485km -119 -10 867.5MHz, SF9BW125, 4/5CR
3.728km -118 -11 867.5MHz, SF9BW125, 4/5CR
2021-07-08 00:06:51 17.625°C 87.3125% 3.33V 0,0,0,0,0,0,0,0,0,0,0,0 v255 52.0895 / 5.17188 1462 ttn.v2 1.489km -117 -12.5 868.5MHz, SF9BW125, 4/5CR
1.49km -114 -14.5 868.5MHz, SF9BW125, 4/5CR
1.49km -114 -14.5 868.5MHz, SF9BW125, 4/5CR
2021-07-07 23:33:56 18.0625°C 86.6875% 3.33V 0,0,0,0,0,0,0,0,0,0,0,0 v255 52.0895 / 5.17188 1461 ttn.v2 11.97km -117 -2.5 867.3MHz, SF9BW125, 4/5CR
15.609km -115 -8 867.3MHz, SF9BW125, 4/5CR
1.493km -118 -12.2 867.3MHz, SF9BW125, 4/5CR
3.729km -119 -12.5 867.3MHz, SF9BW125, 4/5CR
2021-07-07 22:28:06 19.1875°C 83.75% 3.33V 0,0,0,0,0,0,0,0,0,0,0,0 v255 52.0895 / 5.17188 1459 ttn.v2 15.609km -119 -8.5 867.1MHz, SF9BW125, 4/5CR
11.974km -118 -9.5 867.1MHz, SF9BW125, 4/5CR
1.489km -120 -12.8 867.1MHz, SF9BW125, 4/5CR
2021-07-07 21:55:10 19.9375°C 79.75% 3.33V 0,0,0,0,0,0,0,0,0,0,0,0 v255 52.0895 / 5.17188 1458 ttn.v2 1.489km -119 -11.2 868.1MHz, SF9BW125, 4/5CR
2021-07-07 21:22:13 20.6875°C 75.875% 3.32V 0,0,0,0,0,0,0,0,0,0,0,0 v255 52.0895 / 5.17188 1457 ttn.v2 1.491km -120 -8 867.9MHz, SF9BW125, 4/5CR
2021-07-07 20:16:18 23.5°C 65.375% 3.32V 0,0,0,0,0,0,0,0,0,0,0,0 v255 52.0895 / 5.17188 1455 ttn.v2 3.729km -118 -6.5 867.7MHz, SF9BW125, 4/5CR
2021-07-07 19:10:19 24.5625°C 58.25% 3.33V 0,0,0,0,0,0,0,0,0,0,0,0 v255 52.0895 / 5.17188 1453 ttn.v2 3.73km -119 -11.5 867.5MHz, SF9BW125, 4/5CR
2021-07-07 18:37:19 25.3125°C 58.625% 3.32V 0,0,0,0,0,0,0,0,0,0,0,0 v255 52.0895 / 5.17188 1452 ttn.v2 1.501km -118 -9.5 868.1MHz, SF9BW125, 4/5CR
15.609km -118 -12.2 868.1MHz, SF9BW125, 4/5CR
2021-07-07 18:04:18 27.4375°C 53.4375% 3.32V 0,0,0,0,0,0,0,0,0,0,0,0 v255 52.0895 / 5.17188 1451 ttn.v2 11.976km -115 -4.5 867.3MHz, SF9BW125, 4/5CR
3.727km -118 -10.2 867.3MHz, SF9BW125, 4/5CR
- -116 -14 867.3MHz, SF9BW125, 4/5CR
2021-07-07 16:58:13 26.5625°C 53.4375% 3.32V 0,0,0,0,0,0,0,0,0,0,0,0 v255 52.0895 / 5.17188 1449 ttn.v2 3.73km -120 -7.8 867.1MHz, SF9BW125, 4/5CR
15.609km -119 -10.8 867.1MHz, SF9BW125, 4/5CR
1.464km -119 -11 867.1MHz, SF9BW125, 4/5CR
11.969km -119 -11.5 867.1MHz, SF9BW125, 4/5CR
3.338km -110 -11.8 867.1MHz, SF9BW125, 4/5CR
2021-07-07 16:25:10 28.875°C 49.1875% 3.32V 0,0,0,0,0,0,0,0,0,0,0,0 v255 52.0895 / 5.17188 1448 ttn.v2 3.338km -111 -11.5 868.3MHz, SF9BW125, 4/5CR
2021-07-07 15:52:07 27.3125°C 52.6875% 3.32V 0,0,0,0,0,0,0,0,0,0,0,0 v255 52.0895 / 5.17188 1447 ttn.v2 15.609km -119 -6.5 867.9MHz, SF9BW125, 4/5CR
3.73km -121 -10 867.9MHz, SF9BW125, 4/5CR
- -120 -12.5 867.9MHz, SF9BW125, 4/5CR
2021-07-07 15:19:05 26.0625°C 55.875% 3.32V 0,0,0,0,0,0,0,0,0,0,0,0 v255 52.0895 / 5.17188 1446 ttn.v2 - -120 -12.5 868.1MHz, SF9BW125, 4/5CR
2021-07-07 14:46:03 26.1875°C 54.625% 3.32V 0,0,0,0,0,0,0,0,0,0,0,0 v255 52.0895 / 5.17188 1445 ttn.v2 3.727km -120 -7 867.7MHz, SF9BW125, 4/5CR
11.971km -119 -7.8 867.7MHz, SF9BW125, 4/5CR
1.494km -118 -11.8 867.7MHz, SF9BW125, 4/5CR
2021-07-07 13:39:55 29.75°C 47.125% 3.32V 0,0,0,0,0,0,0,0,0,0,0,0 v255 52.0895 / 5.17188 1443 ttn.v2 4.306km -111 -7 867.5MHz, SF9BW125, 4/5CR
4.306km -111 -7 867.5MHz, SF9BW125, 4/5CR
- -121 -14.25 867.5MHz, SF9BW125, 4/5CR
2021-07-07 12:33:50 26.6875°C 54.125% 3.32V 0,0,0,0,0,0,0,0,0,0,0,0 v255 52.0895 / 5.17188 1441 ttn.v2 11.974km -117 -2.5 867.3MHz, SF9BW125, 4/5CR
2021-07-07 12:00:46 27.3125°C 55.8125% 3.32V 0,0,0,0,0,0,0,0,0,0,0,0 v255 52.0895 / 5.17188 1440 ttn.v2 - -119 -11.25 868.1MHz, SF9BW125, 4/5CR
2021-07-07 11:27:44 27.1875°C 55.1875% 3.32V 0,0,0,0,0,0,0,0,0,0,0,0 v255 52.0895 / 5.17188 1439 ttn.v2 4.306km -119 1.2 867.1MHz, SF9BW125, 4/5CR
4.306km -119 1.2 867.1MHz, SF9BW125, 4/5CR
3.728km -119 -5 867.1MHz, SF9BW125, 4/5CR
11.979km -118 -8.8 867.1MHz, SF9BW125, 4/5CR
15.609km -117 -12.2 867.1MHz, SF9BW125, 4/5CR
2021-07-07 10:55:58 24.9375°C 59.3125% 3.32V 0,0,0,0,0,0,0,0,0,0,0,0 v255 52.0895 / 5.17188 1438 ttn.v2 1.485km -118 -8 868.5MHz, SF12BW125, 4/5CR
- -123 -16 868.5MHz, SF12BW125, 4/5CR
2021-07-07 10:21:48 26.125°C 57.5625% 3.32V 0,0,0,0,0,0,0,0,0,0,0,0 v255 52.0894 / 5.17188 1437 ttn.v2 4.304km -117 -0.8 867.9MHz, SF9BW125, 4/5CR
4.304km -117 -0.8 867.9MHz, SF9BW125, 4/5CR
15.62km -117 -11 867.9MHz, SF9BW125, 4/5CR
2021-07-07 09:48:46 27.375°C 56.875% 3.32V 0,0,0,0,0,0,0,0,0,0,0,0 v255 52.0894 / 5.17188 1436 ttn.v2 1.502km -117 -11.8 868.3MHz, SF9BW125, 4/5CR
2021-07-07 09:15:46 22.875°C 68.6875% 3.32V 0,0,0,0,0,0,0,0,0,0,0,0 v255 52.0894 / 5.17188 1435 ttn.v2 4.305km -115 -1 867.7MHz, SF9BW125, 4/5CR
4.305km -115 -1 867.7MHz, SF9BW125, 4/5CR
3.734km -118 -6.5 867.7MHz, SF9BW125, 4/5CR
11.97km -115 -9 867.7MHz, SF9BW125, 4/5CR
15.62km -119 -11 867.7MHz, SF9BW125, 4/5CR
2021-07-07 08:42:47 23.125°C 68.6875% 3.32V 0,0,0,0,0,0,0,0,0,0,0,0 v255 52.0894 / 5.17188 1434 ttn.v2 1.51km -119 -10.2 868.1MHz, SF9BW125, 4/5CR
2021-07-07 08:09:49 24°C 67.5625% 3.32V 0,0,0,0,0,0,0,0,0,0,0,0 v255 52.0894 / 5.17188 1433 ttn.v2 4.304km -106 -9.2 867.5MHz, SF9BW125, 4/5CR
4.304km -106 -9.2 867.5MHz, SF9BW125, 4/5CR
- -123 -13.75 867.5MHz, SF9BW125, 4/5CR
2021-07-07 07:36:51 19.75°C 81.4375% 3.33V 0,0,0,0,0,0,0,0,0,0,0,0 v255 52.0894 / 5.17188 1432 ttn.v2 4.306km -100 -6.5 868.5MHz, SF9BW125, 4/5CR
4.306km -100 -6.5 868.5MHz, SF9BW125, 4/5CR
1.506km -117 -12 868.5MHz, SF9BW125, 4/5CR
2021-07-07 07:03:56 18.75°C 83.75% 3.32V 0,0,0,0,0,0,0,0,0,0,0,0 v255 52.0894 / 5.17188 1431 ttn.v2 4.305km -113 3.2 867.3MHz, SF9BW125, 4/5CR
4.305km -113 3.2 867.3MHz, SF9BW125, 4/5CR
11.952km -116 -2.5 867.3MHz, SF9BW125, 4/5CR
3.735km -118 -13.5 867.3MHz, SF9BW125, 4/5CR
2021-07-07 06:31:01 17.5625°C 86.75% 3.33V 0,0,0,0,0,0,0,0,0,0,0,0 v255 52.0894 / 5.17188 1430 ttn.v2 4.3km -107 -4.5 868.3MHz, SF9BW125, 4/5CR
4.3km -107 -4.5 868.3MHz, SF9BW125, 4/5CR
2021-07-07 05:58:07 17.0625°C 88.375% 3.33V 0,0,0,0,0,0,0,0,0,0,0,0 v255 52.0894 / 5.17188 1429 ttn.v2 4.298km -112 -0.2 867.1MHz, SF9BW125, 4/5CR
4.298km -112 -0.2 867.1MHz, SF9BW125, 4/5CR
3.733km -120 -5.5 867.1MHz, SF9BW125, 4/5CR
15.62km -119 -5.8 867.1MHz, SF9BW125, 4/5CR
11.972km -118 -8.5 867.1MHz, SF9BW125, 4/5CR
2021-07-07 05:25:13 17.3125°C 87.4375% 3.33V 0,0,0,0,0,0,0,0,0,0,0,0 v255 52.0894 / 5.17188 1428 ttn.v2 4.303km -108 0.2 868.1MHz, SF9BW125, 4/5CR
4.303km -108 0.2 868.1MHz, SF9BW125, 4/5CR
1.498km -117 -10.8 868.1MHz, SF9BW125, 4/5CR
2021-07-07 04:52:18 17.1875°C 87.0625% 3.33V 0,0,0,0,0,0,0,0,0,0,0,0 v255 52.0894 / 5.17188 1427 ttn.v2 4.304km -113 3.2 867.9MHz, SF9BW125, 4/5CR
4.304km -113 3.2 867.9MHz, SF9BW125, 4/5CR
3.736km -119 -11.2 867.9MHz, SF9BW125, 4/5CR
1.501km -119 -12.2 867.9MHz, SF9BW125, 4/5CR
2021-07-07 04:19:24 16.9375°C 87.125% 3.32V 0,0,0,0,0,0,0,0,0,0,0,0 v255 52.0894 / 5.17188 1426 ttn.v2 1.507km -119 -11.5 868.5MHz, SF9BW125, 4/5CR
2021-07-07 03:46:30 16.875°C 86.5% 3.33V 0,0,0,0,0,0,0,0,0,0,0,0 v255 52.0894 / 5.17188 1425 ttn.v2 4.304km -111 6 867.7MHz, SF9BW125, 4/5CR
4.304km -111 6 867.7MHz, SF9BW125, 4/5CR
3.735km -119 -6.5 867.7MHz, SF9BW125, 4/5CR
11.967km -117 -11 867.7MHz, SF9BW125, 4/5CR
15.62km -119 -12.2 867.7MHz, SF9BW125, 4/5CR
1.507km -117 -12.2 867.7MHz, SF9BW125, 4/5CR
2021-07-07 02:07:47 18.0625°C 81.3125% 3.33V 0,0,0,0,0,0,0,0,0,0,0,0 v255 52.0894 / 5.17188 1422 ttn.v2 4.304km -111 5 868.1MHz, SF9BW125, 4/5CR
4.304km -111 5 868.1MHz, SF9BW125, 4/5CR
1.503km -119 -10.5 868.1MHz, SF9BW125, 4/5CR
2021-07-07 01:34:52 18°C 80.875% 3.32V 0,0,0,0,0,0,0,0,0,0,0,0 v255 52.0894 / 5.17188 1421 ttn.v2 4.303km -115 5.8 867.3MHz, SF9BW125, 4/5CR
4.303km -115 5.8 867.3MHz, SF9BW125, 4/5CR
11.946km -115 -5.2 867.3MHz, SF9BW125, 4/5CR
15.62km -117 -9.8 867.3MHz, SF9BW125, 4/5CR
3.733km -120 -12 867.3MHz, SF9BW125, 4/5CR
- -122 -14.75 867.3MHz, SF9BW125, 4/5CR
2021-07-07 01:01:58 17.6875°C 81.0625% 3.33V 0,0,0,0,0,0,0,0,0,0,0,0 v255 52.0894 / 5.17188 1420 ttn.v2 1.501km -118 -12.2 868.5MHz, SF9BW125, 4/5CR
2021-07-07 00:29:03 17.875°C 79.625% 3.32V 0,0,0,0,0,0,0,0,0,0,0,0 v255 52.0894 / 5.17188 1419 ttn.v2 4.303km -113 6.5 867.1MHz, SF9BW125, 4/5CR
4.303km -113 6.5 867.1MHz, SF9BW125, 4/5CR
3.734km -121 -6 867.1MHz, SF9BW125, 4/5CR
15.62km -119 -6.8 867.1MHz, SF9BW125, 4/5CR
11.962km -120 -10.5 867.1MHz, SF9BW125, 4/5CR
1.506km -118 -11.8 867.1MHz, SF9BW125, 4/5CR
2021-07-06 23:56:09 18.0625°C 77.9375% 3.32V 0,0,0,0,0,0,0,0,0,0,0,0 v255 52.0894 / 5.17188 1418 ttn.v2 4.303km -107 -6.2 868.3MHz, SF9BW125, 4/5CR
4.303km -107 -6.2 868.3MHz, SF9BW125, 4/5CR
2021-07-06 23:23:14 18.125°C 76.6875% 3.32V 0,0,0,0,0,0,0,0,0,0,0,0 v255 52.0894 / 5.17188 1417 ttn.v2 4.304km -117 4.5 867.9MHz, SF9BW125, 4/5CR
4.304km -117 4.5 867.9MHz, SF9BW125, 4/5CR
2021-07-06 22:50:19 18.4375°C 74.125% 3.32V 0,0,0,0,0,0,0,0,0,0,0,0 v255 52.0894 / 5.17188 1416 ttn.v2 1.507km -120 -12.5 868.1MHz, SF9BW125, 4/5CR
2021-07-06 22:17:23 19.125°C 70.5% 3.33V 0,0,0,0,0,0,0,0,0,0,0,0 v255 52.0894 / 5.17188 1415 ttn.v2 4.303km -114 4.5 867.7MHz, SF9BW125, 4/5CR
4.303km -114 4.5 867.7MHz, SF9BW125, 4/5CR
3.731km -120 -8 867.7MHz, SF9BW125, 4/5CR
1.518km -119 -8.5 867.7MHz, SF9BW125, 4/5CR
11.967km -118 -10.5 867.7MHz, SF9BW125, 4/5CR
15.62km -116 -14 867.7MHz, SF9BW125, 4/5CR
2021-07-06 21:44:28 19.75°C 66.8125% 3.33V 0,0,0,0,0,0,0,0,0,0,0,0 v255 52.0894 / 5.17188 1414 ttn.v2 4.303km -107 -2.8 868.5MHz, SF9BW125, 4/5CR
4.303km -107 -2.8 868.5MHz, SF9BW125, 4/5CR
2021-07-06 21:11:31 20.375°C 63.4375% 3.32V 0,0,0,0,0,0,0,0,0,0,0,0 v255 52.0894 / 5.17188 1413 ttn.v2 1.505km -114 -13.5 867.5MHz, SF9BW125, 4/5CR
2021-07-06 20:38:35 21.125°C 61.4375% 3.32V 0,0,0,0,0,0,0,0,0,0,0,0 v255 52.0894 / 5.17188 1412 ttn.v2 4.305km -108 -4.2 868.3MHz, SF9BW125, 4/5CR
4.305km -108 -4.2 868.3MHz, SF9BW125, 4/5CR
2021-07-06 20:05:37 22.5°C 57% 3.32V 0,0,0,0,0,0,0,0,0,0,0,0 v255 52.0894 / 5.17188 1411 ttn.v2 4.306km -109 6.2 867.3MHz, SF9BW125, 4/5CR
4.306km -109 6.2 867.3MHz, SF9BW125, 4/5CR
11.965km -117 -2.2 867.3MHz, SF9BW125, 4/5CR
- -121 -13.25 867.3MHz, SF9BW125, 4/5CR
2021-07-06 19:32:38 23.5°C 64.25% 3.33V 0,0,0,0,0,0,0,0,0,0,0,0 v255 52.0894 / 5.17188 1410 ttn.v2 4.303km -115 4.2 868.1MHz, SF9BW125, 4/5CR
4.303km -115 4.2 868.1MHz, SF9BW125, 4/5CR
2021-07-06 18:59:39 24.1875°C 60.3125% 3.32V 0,0,0,0,0,0,0,0,0,0,0,0 v255 52.0894 / 5.17188 1409 ttn.v2 4.304km -120 1.5 867.1MHz, SF9BW125, 4/5CR
4.304km -120 1.5 867.1MHz, SF9BW125, 4/5CR
3.733km -114 -4 867.1MHz, SF9BW125, 4/5CR
15.62km -117 -11.8 867.1MHz, SF9BW125, 4/5CR
1.509km -119 -12.8 867.1MHz, SF9BW125, 4/5CR
2021-07-06 18:26:37 25.75°C 57.25% 3.33V 0,0,0,0,0,0,0,0,0,0,0,0 v255 52.0894 / 5.17188 1408 ttn.v2 4.301km -107 -8.5 868.5MHz, SF9BW125, 4/5CR
2021-07-06 17:53:38 24.1875°C 59.625% 3.32V 0,0,0,0,0,0,0,0,0,0,0,0 v255 52.0894 / 5.17188 1407 ttn.v2 3.733km -117 -9 867.9MHz, SF9BW125, 4/5CR
- -126 -13.75 867.9MHz, SF9BW125, 4/5CR
2021-07-06 16:47:37 24.125°C 63.1875% 3.33V 0,0,0,0,0,0,0,0,0,0,0,0 v255 52.0894 / 5.17188 1405 ttn.v2 - -122 -13.5 867.7MHz, SF9BW125, 4/5CR
2021-07-06 16:14:38 24.375°C 59% 3.32V 0,0,0,0,0,0,0,0,0,0,0,0 v255 52.0894 / 5.17188 1404 ttn.v2 1.5km -118 -12.2 868.1MHz, SF9BW125, 4/5CR
2021-07-06 14:35:39 22.4375°C 59.4375% 3.33V 0,0,0,0,0,0,0,0,0,0,0,0 v255 52.0894 / 5.17188 1401 ttn.v2 - -117 2.8 867.3MHz, SF9BW125, 4/5CR
4.302km -117 2.8 867.3MHz, SF9BW125, 4/5CR
11.969km -109 -1.8 867.3MHz, SF9BW125, 4/5CR
2021-07-06 14:02:40 24.375°C 54.75% 3.32V 0,0,0,0,0,0,0,0,0,0,0,0 v255 52.0894 / 5.17188 1400 ttn.v2 4.306km -106 -5.8 868.3MHz, SF9BW125, 4/5CR
2021-07-06 13:29:39 23.8125°C 54.125% 3.32V 0,0,0,0,0,0,0,0,0,0,0,0 v255 52.0894 / 5.17188 1399 ttn.v2 3.733km -121 -4.8 867.1MHz, SF9BW125, 4/5CR
15.62km -119 -7.5 867.1MHz, SF9BW125, 4/5CR
11.969km -119 -10 867.1MHz, SF9BW125, 4/5CR
- -126 -11.5 867.1MHz, SF9BW125, 4/5CR
2021-07-06 12:56:38 25.3125°C 52.5625% 3.32V 0,0,0,0,0,0,0,0,0,0,0,0 v255 52.0894 / 5.17188 1398 ttn.v2 4.306km -114 -4.2 868.1MHz, SF9BW125, 4/5CR
2021-07-06 12:23:37 25.375°C 52.6875% 3.32V 0,0,0,0,0,0,0,0,0,0,0,0 v255 52.0894 / 5.17188 1397 ttn.v2 15.62km -118 -6.8 867.9MHz, SF9BW125, 4/5CR
11.965km -119 -7.5 867.9MHz, SF9BW125, 4/5CR
3.736km -119 -11 867.9MHz, SF9BW125, 4/5CR
2021-07-06 11:50:36 26.6875°C 49.125% 3.33V 0,0,0,0,0,0,0,0,0,0,0,0 v255 52.0894 / 5.17188 1396 ttn.v2 4.302km -103 -6.8 868.5MHz, SF9BW125, 4/5CR
2021-07-06 11:17:34 27.0625°C 49.4375% 3.32V 0,0,0,0,0,0,0,0,0,0,0,0 v255 52.0894 / 5.17188 1395 ttn.v2 11.967km -117 -7.2 867.7MHz, SF9BW125, 4/5CR
3.732km -119 -8 867.7MHz, SF9BW125, 4/5CR
2021-07-06 09:05:34 22°C 82.5625% 3.32V 0,0,0,0,0,0,0,0,0,0,0,0 v255 52.0894 / 5.17188 1391 ttn.v2 11.971km -115 -1.8 867.3MHz, SF9BW125, 4/5CR
1.5km -116 -10.8 867.3MHz, SF9BW125, 4/5CR
- -122 -13 867.3MHz, SF9BW125, 4/5CR
2021-07-06 07:59:40 20.375°C 93.375% 3.32V 0,0,0,0,0,0,0,0,0,0,0,0 v255 52.0894 / 5.17188 1389 ttn.v2 15.62km -120 -6.5 867.1MHz, SF9BW125, 4/5CR
3.734km -120 -6.5 867.1MHz, SF9BW125, 4/5CR
11.927km -120 -10.2 867.1MHz, SF9BW125, 4/5CR
1.505km -119 -11.8 867.1MHz, SF9BW125, 4/5CR
2021-07-06 07:26:44 19.5625°C 95.8125% 3.32V 0,0,0,0,0,0,0,0,0,0,0,0 v255 52.0894 / 5.17188 1388 ttn.v2 4.306km -101 -2.5 868.3MHz, SF9BW125, 4/5CR
4.306km -101 -2.5 868.3MHz, SF9BW125, 4/5CR
2021-07-06 06:53:48 19.375°C 96.125% 3.32V 0,0,0,0,0,0,0,0,0,0,0,0 v255 52.0894 / 5.17188 1387 ttn.v2 4.301km -117 5.2 867.9MHz, SF9BW125, 4/5CR
4.301km -117 5.2 867.9MHz, SF9BW125, 4/5CR
15.62km -115 -5.8 867.9MHz, SF9BW125, 4/5CR
2021-07-06 06:20:52 19.125°C 96.5625% 3.32V 0,0,0,0,0,0,0,0,0,0,0,0 v255 52.0894 / 5.17188 1386 ttn.v2 1.506km -120 -11.2 868.1MHz, SF9BW125, 4/5CR
2021-07-06 05:47:57 18.875°C 97.1875% 3.33V 0,0,0,0,0,0,0,0,0,0,0,0 v255 52.0894 / 5.17188 1385 ttn.v2 3.734km -120 -9.2 867.7MHz, SF9BW125, 4/5CR
11.947km -113 -10 867.7MHz, SF9BW125, 4/5CR
2021-07-06 05:15:02 18.6875°C 97.3125% 3.33V 0,0,0,0,0,0,0,0,0,0,0,0 v255 52.0894 / 5.17188 1384 ttn.v2 4.307km -102 -6.2 868.5MHz, SF9BW125, 4/5CR
4.307km -102 -6.2 868.5MHz, SF9BW125, 4/5CR
2021-07-06 04:09:11 18.875°C 95.9375% 3.32V 0,0,0,0,0,0,0,0,0,0,0,0 v255 52.0894 / 5.17188 1382 ttn.v2 1.498km -115 -9.8 868.3MHz, SF9BW125, 4/5CR
2021-07-06 03:36:16 18.9375°C 95.1875% 3.32V 0,0,0,0,0,0,0,0,0,0,0,0 v255 52.0894 / 5.17188 1381 ttn.v2 11.964km -119 -2 867.3MHz, SF9BW125, 4/5CR
15.62km -117 -11 867.3MHz, SF9BW125, 4/5CR
3.735km -120 -11.5 867.3MHz, SF9BW125, 4/5CR
2021-07-06 02:30:25 18.875°C 94.4375% 3.33V 0,0,0,0,0,0,0,0,0,0,0,0 v255 52.0894 / 5.17188 1379 ttn.v2 15.62km -120 -8.5 867.1MHz, SF9BW125, 4/5CR
3.733km -120 -8.8 867.1MHz, SF9BW125, 4/5CR
11.961km -118 -11.8 867.1MHz, SF9BW125, 4/5CR
2021-07-06 01:57:30 18.9375°C 93.6875% 3.33V 0,0,0,0,0,0,0,0,0,0,0,0 v255 52.0894 / 5.17188 1378 ttn.v2 4.305km -103 -4.2 868.5MHz, SF9BW125, 4/5CR
4.305km -103 -4.2 868.5MHz, SF9BW125, 4/5CR
2021-07-06 00:51:39 19.3125°C 91.125% 3.32V 0,0,0,0,0,0,0,0,0,0,0,0 v255 52.0894 / 5.17188 1376 ttn.v2 15.62km -109 -8.8 868.3MHz, SF9BW125, 4/5CR
2021-07-05 23:45:47 19.5625°C 89.1875% 3.32V 0,0,0,0,0,0,0,0,0,0,0,0 v255 52.0894 / 5.17188 1374 ttn.v2 4.304km -115 2.2 868.1MHz, SF9BW125, 4/5CR
4.304km -115 2.2 868.1MHz, SF9BW125, 4/5CR
2021-07-05 23:12:51 19.8125°C 87.6875% 3.32V 0,0,0,0,0,0,0,0,0,0,0,0 v255 52.0894 / 5.17188 1373 ttn.v2 4.302km -109 -7.5 867.5MHz, SF9BW125, 4/5CR
4.302km -109 -7.5 867.5MHz, SF9BW125, 4/5CR
1.498km -119 -11.8 867.5MHz, SF9BW125, 4/5CR
- -122 -12.75 867.5MHz, SF9BW125, 4/5CR
2021-07-05 22:39:55 20°C 86.25% 3.33V 0,0,0,0,0,0,0,0,0,0,0,0 v255 52.0894 / 5.17188 1372 ttn.v2 1.507km -115 -12.8 868.5MHz, SF9BW125, 4/5CR
2021-07-05 22:06:59 20.25°C 84.9375% 3.33V 0,0,0,0,0,0,0,0,0,0,0,0 v255 52.0894 / 5.17188 1371 ttn.v2 11.967km -119 -2.2 867.3MHz, SF9BW125, 4/5CR
15.62km -117 -10.2 867.3MHz, SF9BW125, 4/5CR
3.733km -120 -10.5 867.3MHz, SF9BW125, 4/5CR
2021-07-05 21:34:03 20.8125°C 82.5% 3.32V 0,0,0,0,0,0,0,0,0,0,0,0 v255 52.0894 / 5.17188 1370 ttn.v2 4.305km -105 -9.2 868.3MHz, SF9BW125, 4/5CR
4.305km -105 -9.2 868.3MHz, SF9BW125, 4/5CR
15.62km -109 -10.8 868.3MHz, SF9BW125, 4/5CR
2021-07-05 21:01:06 21.6875°C 78.25% 3.32V 0,0,0,0,0,0,0,0,0,0,0,0 v255 52.0894 / 5.17188 1369 ttn.v2 3.733km -121 -6 867.1MHz, SF9BW125, 4/5CR
15.62km -120 -6.8 867.1MHz, SF9BW125, 4/5CR
2021-07-05 19:55:08 24.5°C 68.4375% 3.33V 0,0,0,0,0,0,0,0,0,0,0,0 v255 52.0894 / 5.17188 1367 ttn.v2 4.306km -113 5.8 867.9MHz, SF9BW125, 4/5CR
3.732km -120 -12.8 867.9MHz, SF9BW125, 4/5CR
2021-07-05 18:49:10 21.0625°C 74.5625% 3.32V 0,0,0,0,0,0,0,0,0,0,0,0 v255 52.0894 / 5.17188 1365 ttn.v2 3.733km -119 -7.8 867.7MHz, SF9BW125, 4/5CR
11.963km -119 -11.8 867.7MHz, SF9BW125, 4/5CR
- -121 -12 867.7MHz, SF9BW125, 4/5CR
2021-07-05 16:37:14 24.125°C 64.3125% 3.33V 0,0,0,0,0,0,0,0,0,0,0,0 v255 52.0894 / 5.17188 1361 ttn.v2 4.303km -113 -0.8 867.3MHz, SF9BW125, 4/5CR
4.303km -113 -0.8 867.3MHz, SF9BW125, 4/5CR
11.963km -115 -3.2 867.3MHz, SF9BW125, 4/5CR
3.736km -119 -9.8 867.3MHz, SF9BW125, 4/5CR
1.503km -119 -10.8 867.3MHz, SF9BW125, 4/5CR
2021-07-05 16:04:14 27.75°C 55.875% 3.32V 0,0,0,0,0,0,0,0,0,0,0,0 v255 52.0894 / 5.17188 1360 ttn.v2 4.303km -106 -7.8 868.5MHz, SF9BW125, 4/5CR
4.303km -106 -7.8 868.5MHz, SF9BW125, 4/5CR
2021-07-05 15:31:08 32.125°C 48.0625% 3.32V 0,0,0,0,0,0,0,0,0,0,0,0 v255 52.0894 / 5.17188 1359 ttn.v2 4.302km -115 -3.5 867.1MHz, SF9BW125, 4/5CR
4.302km -115 -3.5 867.1MHz, SF9BW125, 4/5CR
3.734km -120 -5.8 867.1MHz, SF9BW125, 4/5CR
15.62km -119 -9 867.1MHz, SF9BW125, 4/5CR
11.965km -117 -10.2 867.1MHz, SF9BW125, 4/5CR
2021-07-05 14:25:04 25.125°C 63.9375% 3.32V 0,0,0,0,0,0,0,0,0,0,0,0 v255 52.0894 / 5.17188 1357 ttn.v2 4.305km -119 1.5 867.9MHz, SF9BW125, 4/5CR
4.305km -119 1.5 867.9MHz, SF9BW125, 4/5CR
2021-07-05 13:52:04 24.125°C 62.9375% 3.32V 0,0,0,0,0,0,0,0,0,0,0,0 v255 52.0894 / 5.17188 1356 ttn.v2 4.307km -103 -0.5 868.1MHz, SF9BW125, 4/5CR
4.307km -103 -0.5 868.1MHz, SF9BW125, 4/5CR
3.733km -120 -12 868.1MHz, SF9BW125, 4/5CR
2021-07-05 13:19:03 24.75°C 61.625% 3.32V 0,0,0,0,0,0,0,0,0,0,0,0 v255 52.0894 / 5.17188 1355 ttn.v2 4.305km -109 7.5 867.7MHz, SF9BW125, 4/5CR
4.305km -109 7.5 867.7MHz, SF9BW125, 4/5CR
11.966km -117 -8.8 867.7MHz, SF9BW125, 4/5CR
3.733km -120 -9.2 867.7MHz, SF9BW125, 4/5CR
1.509km -118 -12 867.7MHz, SF9BW125, 4/5CR
2021-07-05 12:46:02 24.8125°C 62.25% 3.32V 0,0,0,0,0,0,0,0,0,0,0,0 v255 52.0894 / 5.17188 1354 ttn.v2 4.304km -103 -4.2 868.5MHz, SF9BW125, 4/5CR
4.304km -103 -4.2 868.5MHz, SF9BW125, 4/5CR
1.507km -117 -12 868.5MHz, SF9BW125, 4/5CR
2021-07-05 12:13:01 26.0625°C 57.9375% 3.32V 0,0,0,0,0,0,0,0,0,0,0,0 v255 52.0894 / 5.17188 1353 ttn.v2 1.492km -116 -10.2 867.5MHz, SF9BW125, 4/5CR
2021-07-05 11:06:57 24.5625°C 63.25% 3.33V 0,0,0,0,0,0,0,0,0,0,0,0 v255 52.0894 / 5.17188 1351 ttn.v2 4.306km -114 7 867.3MHz, SF9BW125, 4/5CR
4.306km -114 7 867.3MHz, SF9BW125, 4/5CR
11.952km -117 -4 867.3MHz, SF9BW125, 4/5CR
15.62km -119 -6.8 867.3MHz, SF9BW125, 4/5CR
1.495km -118 -10.8 867.3MHz, SF9BW125, 4/5CR
3.735km -119 -12.2 867.3MHz, SF9BW125, 4/5CR
2021-07-05 10:00:58 22.375°C 73.3125% 3.32V 0,0,0,0,0,0,0,0,0,0,0,0 v255 52.0894 / 5.17188 1349 ttn.v2 4.304km -118 1.2 867.1MHz, SF9BW125, 4/5CR
4.304km -118 1.2 867.1MHz, SF9BW125, 4/5CR
3.731km -121 -4.8 867.1MHz, SF9BW125, 4/5CR
11.966km -119 -7.8 867.1MHz, SF9BW125, 4/5CR
15.62km -120 -8.2 867.1MHz, SF9BW125, 4/5CR
2021-07-05 09:27:59 22.375°C 75.4375% 3.32V 0,0,0,0,0,0,0,0,0,0,0,0 v255 52.0894 / 5.17188 1348 ttn.v2 4.305km -107 -5.8 868.5MHz, SF9BW125, 4/5CR
4.305km -107 -5.8 868.5MHz, SF9BW125, 4/5CR
2021-07-05 08:55:01 24.0625°C 77.4375% 3.33V 0,0,0,0,0,0,0,0,0,0,0,0 v255 52.0894 / 5.17188 1347 ttn.v2 4.304km -105 7 867.9MHz, SF9BW125, 4/5CR
4.304km -105 7 867.9MHz, SF9BW125, 4/5CR
15.62km -118 -7.5 867.9MHz, SF9BW125, 4/5CR
2021-07-05 07:49:09 18.1875°C 95.8125% 3.33V 0,0,0,0,0,0,0,0,0,0,0,0 v255 52.0894 / 5.17188 1345 ttn.v2 4.302km -111 8.8 867.7MHz, SF9BW125, 4/5CR
4.302km -111 8.8 867.7MHz, SF9BW125, 4/5CR
3.734km -117 -7 867.7MHz, SF9BW125, 4/5CR
11.961km -117 -9.8 867.7MHz, SF9BW125, 4/5CR
15.62km -115 -13.8 867.7MHz, SF9BW125, 4/5CR
2021-07-05 06:43:19 17.8125°C 96.9375% 3.33V 0,0,0,0,0,0,0,0,0,0,0,0 v255 52.0894 / 5.17188 1343 ttn.v2 4.304km -103 -5.5 867.5MHz, SF9BW125, 4/5CR
4.304km -103 -5.5 867.5MHz, SF9BW125, 4/5CR
2021-07-05 06:11:34 17.875°C 97.5% 3.32V 0,0,0,0,0,0,0,0,0,0,0,0 v255 52.0894 / 5.17188 1342 ttn.v2 - -120 -17.5 868.5MHz, SF12BW125, 4/5CR
1.497km -117 -19 868.5MHz, SF12BW125, 4/5CR
2021-07-05 05:37:36 17.9375°C 97.8125% 3.32V 0,0,0,0,0,0,0,0,0,0,0,0 v255 52.0897 / 5.17194 1341 ttn.v2 4.312km -113 2.8 867.3MHz, SF9BW125, 4/5CR
4.312km -113 2.8 867.3MHz, SF9BW125, 4/5CR
15.587km -117 -9.8 867.3MHz, SF9BW125, 4/5CR
3.724km -119 -11.5 867.3MHz, SF9BW125, 4/5CR
2021-07-05 05:04:41 18.125°C 97.9375% 3.33V 0,0,0,0,0,0,0,0,0,0,0,0 v255 52.0897 / 5.17194 1340 ttn.v2 1.466km -119 -8.2 868.3MHz, SF9BW125, 4/5CR
2021-07-05 04:31:46 18.1875°C 97.5625% 3.32V 0,0,0,0,0,0,0,0,0,0,0,0 v255 52.0897 / 5.17194 1339 ttn.v2 11.992km -119 -11.2 867.1MHz, SF9BW125, 4/5CR
15.587km -118 -13.8 867.1MHz, SF9BW125, 4/5CR
2021-07-05 03:25:56 18.25°C 96% 3.33V 0,0,0,0,0,0,0,0,0,0,0,0 v255 52.0897 / 5.17194 1337 ttn.v2 4.31km -117 2.2 867.9MHz, SF9BW125, 4/5CR
4.31km -117 2.2 867.9MHz, SF9BW125, 4/5CR
15.587km -117 -3.2 867.9MHz, SF9BW125, 4/5CR
3.724km -118 -9.8 867.9MHz, SF9BW125, 4/5CR
33.587km -120 -10 867.9MHz, SF9BW125, 4/5CR
11.993km -120 -10.5 867.9MHz, SF9BW125, 4/5CR
1.476km -120 -11 867.9MHz, SF9BW125, 4/5CR
2021-07-05 02:20:07 18°C 91.6875% 3.33V 0,0,0,0,0,0,0,0,0,0,0,0 v255 52.0897 / 5.17194 1335 ttn.v2 4.313km -108 4 867.7MHz, SF9BW125, 4/5CR
4.313km -108 4 867.7MHz, SF9BW125, 4/5CR
3.723km -120 -6.5 867.7MHz, SF9BW125, 4/5CR
11.996km -119 -12.8 867.7MHz, SF9BW125, 4/5CR
2021-07-05 01:47:12 17.625°C 89% 3.33V 0,0,0,0,0,0,0,0,0,0,0,0 v255 52.0897 / 5.17194 1334 ttn.v2 1.472km -117 -11.5 868.3MHz, SF9BW125, 4/5CR
2021-07-05 01:14:17 17.625°C 87.8125% 3.32V 0,0,0,0,0,0,0,0,0,0,0,0 v255 52.0897 / 5.17194 1333 ttn.v2 4.314km -107 -1.2 867.5MHz, SF9BW125, 4/5CR
4.314km -107 -1.2 867.5MHz, SF9BW125, 4/5CR
2021-07-05 00:41:23 17.8125°C 87.625% 3.33V 0,0,0,0,0,0,0,0,0,0,0,0 v255 52.0897 / 5.17194 1332 ttn.v2 4.311km -117 0 868.1MHz, SF9BW125, 4/5CR
4.311km -117 0 868.1MHz, SF9BW125, 4/5CR
2021-07-05 00:08:28 18.25°C 87.1875% 3.32V 0,0,0,0,0,0,0,0,0,0,0,0 v255 52.0897 / 5.17194 1331 ttn.v2 4.311km -113 8.2 867.3MHz, SF9BW125, 4/5CR
4.311km -113 8.2 867.3MHz, SF9BW125, 4/5CR
3.722km -118 -11.2 867.3MHz, SF9BW125, 4/5CR
15.587km -117 -11.8 867.3MHz, SF9BW125, 4/5CR
2021-07-04 23:35:33 18.75°C 87.125% 3.32V 0,0,0,0,0,0,0,0,0,0,0,0 v255 52.0897 / 5.17194 1330 ttn.v2 4.311km -103 -7.2 868.5MHz, SF9BW125, 4/5CR
4.311km -103 -7.2 868.5MHz, SF9BW125, 4/5CR
2021-07-04 23:02:37 19.3125°C 86.8125% 3.32V 0,0,0,0,0,0,0,0,0,0,0,0 v255 52.0897 / 5.17194 1329 ttn.v2 4.312km -119 1.8 867.1MHz, SF9BW125, 4/5CR
3.723km -120 -5.8 867.1MHz, SF9BW125, 4/5CR
11.986km -119 -11.5 867.1MHz, SF9BW125, 4/5CR
2021-07-04 22:29:42 19.625°C 87.3125% 3.32V 0,0,0,0,0,0,0,0,0,0,0,0 v255 52.0897 / 5.17194 1328 ttn.v2 4.311km -101 -4.8 868.3MHz, SF9BW125, 4/5CR
4.311km -101 -4.8 868.3MHz, SF9BW125, 4/5CR
15.587km -111 -10.5 868.3MHz, SF9BW125, 4/5CR
2021-07-04 21:56:45 20.5625°C 84.75% 3.32V 0,0,0,0,0,0,0,0,0,0,0,0 v255 52.0897 / 5.17194 1327 ttn.v2 4.309km -111 -3 867.9MHz, SF9BW125, 4/5CR
4.309km -111 -3 867.9MHz, SF9BW125, 4/5CR
15.587km -119 -5 867.9MHz, SF9BW125, 4/5CR
3.725km -119 -10.8 867.9MHz, SF9BW125, 4/5CR
2021-07-04 21:23:48 21.5625°C 80.4375% 3.32V 0,0,0,0,0,0,0,0,0,0,0,0 v255 52.0897 / 5.17194 1326 ttn.v2 - -124 -13.5 868.1MHz, SF9BW125, 4/5CR
2021-07-04 20:50:50 22.75°C 78.5625% 3.33V 0,0,0,0,0,0,0,0,0,0,0,0 v255 52.0897 / 5.17194 1325 ttn.v2 4.313km -111 7.2 867.7MHz, SF9BW125, 4/5CR
4.313km -111 7.2 867.7MHz, SF9BW125, 4/5CR
3.723km -119 -6.2 867.7MHz, SF9BW125, 4/5CR
11.992km -114 -8 867.7MHz, SF9BW125, 4/5CR
- -121 -13 867.7MHz, SF9BW125, 4/5CR
15.587km -117 -14.2 867.7MHz, SF9BW125, 4/5CR
2021-07-04 19:44:52 23.6875°C 73.6875% 3.32V 0,0,0,0,0,0,0,0,0,0,0,0 v255 52.0897 / 5.17194 1323 ttn.v2 1.461km -117 -10.8 867.5MHz, SF9BW125, 4/5CR
- -121 -12 867.5MHz, SF9BW125, 4/5CR
2021-07-04 19:11:52 27.5625°C 68.3125% 3.32V 0,0,0,0,0,0,0,0,0,0,0,0 v255 52.0897 / 5.17194 1322 ttn.v2 4.31km -108 -9.2 868.3MHz, SF9BW125, 4/5CR
4.31km -108 -9.2 868.3MHz, SF9BW125, 4/5CR
2021-07-04 18:38:49 26.875°C 70.8125% 3.32V 0,0,0,0,0,0,0,0,0,0,0,0 v255 52.0897 / 5.17194 1321 ttn.v2 4.308km -115 3.2 867.3MHz, SF9BW125, 4/5CR
4.308km -115 3.2 867.3MHz, SF9BW125, 4/5CR
12.003km -117 -2 867.3MHz, SF9BW125, 4/5CR
15.587km -117 -12.2 867.3MHz, SF9BW125, 4/5CR
2021-07-04 18:05:48 25.5625°C 73.25% 3.32V 0,0,0,0,0,0,0,0,0,0,0,0 v255 52.0897 / 5.17194 1320 ttn.v2 4.313km -115 0.5 868.1MHz, SF9BW125, 4/5CR
4.313km -115 0.5 868.1MHz, SF9BW125, 4/5CR
1.467km -119 -11.2 868.1MHz, SF9BW125, 4/5CR
2021-07-04 17:32:48 24.625°C 73.375% 3.32V 0,0,0,0,0,0,0,0,0,0,0,0 v255 52.0897 / 5.17194 1319 ttn.v2 4.311km -120 2 867.1MHz, SF9BW125, 4/5CR
4.311km -120 2 867.1MHz, SF9BW125, 4/5CR
15.587km -120 -8.5 867.1MHz, SF9BW125, 4/5CR
2021-07-04 16:26:46 27.5°C 59.625% 3.32V 0,0,0,0,0,0,0,0,0,0,0,0 v255 52.0897 / 5.17194 1317 ttn.v2 4.314km -117 4.2 867.9MHz, SF9BW125, 4/5CR
4.314km -117 4.2 867.9MHz, SF9BW125, 4/5CR
15.587km -120 -8.5 867.9MHz, SF9BW125, 4/5CR
3.723km -121 -10.2 867.9MHz, SF9BW125, 4/5CR
1.473km -120 -13.8 867.9MHz, SF9BW125, 4/5CR
2021-07-04 15:53:43 29.9375°C 50.0625% 3.32V 0,0,0,0,0,0,0,0,0,0,0,0 v255 52.0897 / 5.17194 1316 ttn.v2 4.311km -108 -2.2 868.3MHz, SF9BW125, 4/5CR
4.311km -108 -2.2 868.3MHz, SF9BW125, 4/5CR
2021-07-04 15:20:38 32.0625°C 46.125% 3.32V 0,0,0,0,0,0,0,0,0,0,0,0 v255 52.0897 / 5.17194 1315 ttn.v2 4.308km -114 5.5 867.7MHz, SF9BW125, 4/5CR
4.308km -114 5.5 867.7MHz, SF9BW125, 4/5CR
3.722km -120 -4.5 867.7MHz, SF9BW125, 4/5CR
11.994km -117 -11 867.7MHz, SF9BW125, 4/5CR
2021-07-04 14:47:32 31.5625°C 47.6875% 3.32V 0,0,0,0,0,0,0,0,0,0,0,0 v255 52.0897 / 5.17194 1314 ttn.v2 4.31km -111 -5.2 868.1MHz, SF9BW125, 4/5CR
4.31km -111 -5.2 868.1MHz, SF9BW125, 4/5CR
2021-07-04 14:14:27 30.4375°C 50.625% 3.32V 0,0,0,0,0,0,0,0,0,0,0,0 v255 52.0897 / 5.17194 1313 ttn.v2 3.722km -120 -10.2 867.5MHz, SF9BW125, 4/5CR
1.468km -118 -11.8 867.5MHz, SF9BW125, 4/5CR
2021-07-04 13:08:15 34.25°C 41.0625% 3.32V 0,0,0,0,0,0,0,0,0,0,0,0 v255 52.0897 / 5.17194 1311 ttn.v2 11.99km -117 -0.5 867.3MHz, SF9BW125, 4/5CR
2021-07-04 12:01:59 29.8125°C 50.375% 3.32V 0,0,0,0,0,0,0,0,0,0,0,0 v255 52.0897 / 5.17194 1309 ttn.v2 3.722km -119 -4.8 867.1MHz, SF9BW125, 4/5CR
2021-07-04 10:55:46 30.125°C 53.125% 3.32V 0,0,0,0,0,0,0,0,0,0,0,0 v255 52.0897 / 5.17194 1307 ttn.v2 3.722km -120 -6.5 867.9MHz, SF9BW125, 4/5CR
11.993km -120 -11.2 867.9MHz, SF9BW125, 4/5CR
2021-07-04 09:49:39 27.125°C 63.4375% 3.32V 0,0,0,0,0,0,0,0,0,0,0,0 v255 52.0897 / 5.17194 1305 ttn.v2 3.722km -118 -5.5 867.7MHz, SF9BW125, 4/5CR
11.99km -119 -8.5 867.7MHz, SF9BW125, 4/5CR
2021-07-04 09:16:39 25°C 73.9375% 3.32V 0,0,0,0,0,0,0,0,0,0,0,0 v255 52.0897 / 5.17194 1304 ttn.v2 1.468km -119 -12 868.3MHz, SF9BW125, 4/5CR
2021-07-04 07:37:44 21.6875°C 94.1875% 3.32V 0,0,0,0,0,0,0,0,0,0,0,0 v255 52.0897 / 5.17194 1301 ttn.v2 11.987km -115 -3.2 867.3MHz, SF9BW125, 4/5CR
3.723km -120 -8.8 867.3MHz, SF9BW125, 4/5CR
15.587km -116 -11.2 867.3MHz, SF9BW125, 4/5CR
2021-07-04 06:31:50 19.5625°C 103.188% 3.32V 0,0,0,0,0,0,0,0,0,0,0,0 v255 52.0897 / 5.17194 1299 ttn.v2 3.724km -120 -8.2 867.1MHz, SF9BW125, 4/5CR
11.995km -118 -8.8 867.1MHz, SF9BW125, 4/5CR
15.587km -119 -11.8 867.1MHz, SF9BW125, 4/5CR
2021-07-04 05:58:54 19.375°C 103.5% 3.32V 0,0,0,0,0,0,0,0,0,0,0,0 v255 52.0897 / 5.17194 1298 ttn.v2 1.477km -118 -9.2 868.3MHz, SF9BW125, 4/5CR
2021-07-04 05:25:59 19.4375°C 103.125% 3.32V 0,0,0,0,0,0,0,0,0,0,0,0 v255 52.0897 / 5.17194 1297 ttn.v2 15.587km -114 -5.8 867.9MHz, SF9BW125, 4/5CR
1.465km -120 -7.8 867.9MHz, SF9BW125, 4/5CR
3.723km -121 -8.8 867.9MHz, SF9BW125, 4/5CR
2021-07-04 04:53:03 19.375°C 102.625% 3.32V 0,0,0,0,0,0,0,0,0,0,0,0 v255 52.0897 / 5.17194 1296 ttn.v2 1.468km -120 -11.8 868.1MHz, SF9BW125, 4/5CR
2021-07-04 03:14:16 19.4375°C 100.125% 3.32V 0,0,0,0,0,0,0,0,0,0,0,0 v255 52.0897 / 5.17194 1293 ttn.v2 4.309km -109 -1.8 867.5MHz, SF9BW125, 4/5CR
1.474km -119 -13.5 867.5MHz, SF9BW125, 4/5CR
2021-07-04 02:41:20 19.5625°C 99.0625% 3.32V 0,0,0,0,0,0,0,0,0,0,0,0 v255 52.0897 / 5.17194 1292 ttn.v2 4.31km -109 -1 868.3MHz, SF9BW125, 4/5CR
2021-07-04 02:08:24 19.6875°C 98% 3.32V 0,0,0,0,0,0,0,0,0,0,0,0 v255 52.0897 / 5.17194 1291 ttn.v2 4.314km -107 -0.2 867.3MHz, SF9BW125, 4/5CR
3.724km -119 -10.5 867.3MHz, SF9BW125, 4/5CR
2021-07-04 01:35:28 19.75°C 97.1875% 3.33V 0,0,0,0,0,0,0,0,0,0,0,0 v255 52.0897 / 5.17194 1290 ttn.v2 1.469km -120 -12.5 868.1MHz, SF9BW125, 4/5CR
2021-07-04 01:02:32 20.125°C 96.5625% 3.33V 0,0,0,0,0,0,0,0,0,0,0,0 v255 52.0897 / 5.17194 1289 ttn.v2 3.722km -120 -8.2 867.1MHz, SF9BW125, 4/5CR
15.587km -118 -8.8 867.1MHz, SF9BW125, 4/5CR
11.992km -120 -10.5 867.1MHz, SF9BW125, 4/5CR
2021-07-04 00:29:36 20.125°C 96.1875% 3.32V 0,0,0,0,0,0,0,0,0,0,0,0 v255 52.0897 / 5.17194 1288 ttn.v2 4.313km -107 -4.8 868.5MHz, SF9BW125, 4/5CR
2021-07-03 23:56:39 20.25°C 95.5% 3.32V 0,0,0,0,0,0,0,0,0,0,0,0 v255 52.0897 / 5.17194 1287 ttn.v2 4.31km -115 3.8 867.9MHz, SF9BW125, 4/5CR
15.587km -119 -3 867.9MHz, SF9BW125, 4/5CR
1.476km -120 -8.8 867.9MHz, SF9BW125, 4/5CR
3.723km -120 -9 867.9MHz, SF9BW125, 4/5CR
2021-07-03 22:50:46 20.875°C 93.375% 3.33V 0,0,0,0,0,0,0,0,0,0,0,0 v255 52.0897 / 5.17194 1285 ttn.v2 4.313km -108 5.5 867.7MHz, SF9BW125, 4/5CR
2021-07-03 22:17:49 21.25°C 91.5625% 3.32V 0,0,0,0,0,0,0,0,0,0,0,0 v255 52.0897 / 5.17194 1284 ttn.v2 1.466km -120 -11.2 868.1MHz, SF9BW125, 4/5CR
2021-07-03 21:44:52 21.75°C 88.8125% 3.32V 0,0,0,0,0,0,0,0,0,0,0,0 v255 52.0897 / 5.17194 1283 ttn.v2 4.309km -106 -6 867.5MHz, SF9BW125, 4/5CR
4.309km -106 -6 867.5MHz, SF9BW125, 4/5CR
1.469km -119 -12.2 867.5MHz, SF9BW125, 4/5CR
2021-07-03 20:38:56 22.5625°C 83.5625% 3.33V 0,0,0,0,0,0,0,0,0,0,0,0 v255 52.0897 / 5.17194 1281 ttn.v2 4.308km -111 8 867.3MHz, SF9BW125, 4/5CR
4.308km -111 8 867.3MHz, SF9BW125, 4/5CR
11.998km -117 -1.5 867.3MHz, SF9BW125, 4/5CR
3.723km -120 -10 867.3MHz, SF9BW125, 4/5CR
15.587km -119 -12 867.3MHz, SF9BW125, 4/5CR
2021-07-03 19:32:59 24.125°C 71.5625% 3.32V 0,0,0,0,0,0,0,0,0,0,0,0 v255 52.0897 / 5.17194 1279 ttn.v2 15.587km -120 -5.2 867.1MHz, SF9BW125, 4/5CR
3.724km -121 -6 867.1MHz, SF9BW125, 4/5CR
11.993km -120 -10 867.1MHz, SF9BW125, 4/5CR
1.471km -120 -11.5 867.1MHz, SF9BW125, 4/5CR
- -124 -13.25 867.1MHz, SF9BW125, 4/5CR
2021-07-03 18:59:59 25.125°C 66.0625% 3.32V 0,0,0,0,0,0,0,0,0,0,0,0 v255 52.0897 / 5.17194 1278 ttn.v2 4.311km -108 3.5 868.1MHz, SF9BW125, 4/5CR
4.311km -108 3.5 868.1MHz, SF9BW125, 4/5CR
2021-07-03 18:26:58 26.8125°C 61.1875% 3.32V 0,0,0,0,0,0,0,0,0,0,0,0 v255 52.0897 / 5.17194 1277 ttn.v2 4.312km -120 -4.5 867.9MHz, SF9BW125, 4/5CR
4.312km -120 -4.5 867.9MHz, SF9BW125, 4/5CR
15.587km -119 -5 867.9MHz, SF9BW125, 4/5CR
3.722km -120 -8.5 867.9MHz, SF9BW125, 4/5CR
1.489km -120 -10.5 867.9MHz, SF9BW125, 4/5CR
2021-07-03 17:20:52 28.25°C 57.625% 3.32V 0,0,0,0,0,0,0,0,0,0,0,0 v255 52.0897 / 5.17194 1275 ttn.v2 4.308km -113 7.5 867.7MHz, SF9BW125, 4/5CR
4.308km -113 7.5 867.7MHz, SF9BW125, 4/5CR
3.725km -119 -4.5 867.7MHz, SF9BW125, 4/5CR
11.994km -119 -8 867.7MHz, SF9BW125, 4/5CR
1.475km -118 -10 867.7MHz, SF9BW125, 4/5CR
2021-07-03 16:14:45 28.6875°C 54.75% 3.32V 0,0,0,0,0,0,0,0,0,0,0,0 v255 52.0897 / 5.17194 1273 ttn.v2 4.314km -109 -7 867.5MHz, SF9BW125, 4/5CR
4.314km -109 -7 867.5MHz, SF9BW125, 4/5CR
1.47km -111 -13 867.5MHz, SF9BW125, 4/5CR
2021-07-03 15:41:40 30.3125°C 52.25% 3.32V 0,0,0,0,0,0,0,0,0,0,0,0 v255 52.0897 / 5.17194 1272 ttn.v2 4.313km -115 -0.2 868.1MHz, SF9BW125, 4/5CR
4.313km -115 -0.2 868.1MHz, SF9BW125, 4/5CR
2021-07-03 15:08:36 29.125°C 54.625% 3.32V 0,0,0,0,0,0,0,0,0,0,0,0 v255 52.0897 / 5.17194 1271 ttn.v2 11.988km -117 -0.2 867.3MHz, SF9BW125, 4/5CR
3.722km -121 -10.8 867.3MHz, SF9BW125, 4/5CR
2021-07-03 14:35:33 28.5°C 54% 3.32V 0,0,0,0,0,0,0,0,0,0,0,0 v255 52.0897 / 5.17194 1270 ttn.v2 4.311km -106 -8 868.5MHz, SF9BW125, 4/5CR
4.311km -106 -8 868.5MHz, SF9BW125, 4/5CR
2021-07-03 14:02:28 29.9375°C 51.875% 3.32V 0,0,0,0,0,0,0,0,0,0,0,0 v255 52.0897 / 5.17194 1269 ttn.v2 3.722km -118 -6.5 867.1MHz, SF9BW125, 4/5CR
15.587km -112 -7.8 867.1MHz, SF9BW125, 4/5CR
11.994km -117 -9.2 867.1MHz, SF9BW125, 4/5CR
2021-07-03 12:56:17 28.875°C 53.1875% 3.32V 0,0,0,0,0,0,0,0,0,0,0,0 v255 52.0897 / 5.17194 1267 ttn.v2 4.312km -117 0.8 867.9MHz, SF9BW125, 4/5CR
4.312km -117 0.8 867.9MHz, SF9BW125, 4/5CR
15.587km -115 -5.5 867.9MHz, SF9BW125, 4/5CR
3.724km -121 -9 867.9MHz, SF9BW125, 4/5CR
2021-07-03 12:23:13 29.6875°C 51.125% 3.32V 0,0,0,0,0,0,0,0,0,0,0,0 v255 52.0897 / 5.17194 1266 ttn.v2 4.31km -113 -6.2 868.1MHz, SF9BW125, 4/5CR
4.31km -113 -6.2 868.1MHz, SF9BW125, 4/5CR
2021-07-03 11:50:07 33.5°C 42.0625% 3.32V 0,0,0,0,0,0,0,0,0,0,0,0 v255 52.0897 / 5.17194 1265 ttn.v2 4.309km -111 7.2 867.7MHz, SF9BW125, 4/5CR
4.309km -111 7.2 867.7MHz, SF9BW125, 4/5CR
11.993km -119 -9.2 867.7MHz, SF9BW125, 4/5CR
2021-07-03 11:16:58 33.9375°C 42.75% 3.32V 0,0,0,0,0,0,0,0,0,0,0,0 v255 52.0897 / 5.17194 1264 ttn.v2 4.311km -103 -8.2 868.5MHz, SF9BW125, 4/5CR
4.311km -103 -8.2 868.5MHz, SF9BW125, 4/5CR

Message count: 200
Node count: 1

Messages per node

Number of messages in list aboveNodes
200

Statistics per gateway

GatewayNumber of messagesNumber of nodesNodes
891 (3.724km)
861 (1.47km)
801 (4.311km)
801 (4.311km)
681 (15.587km)
661 (11.993km)
191
41
21 (1.49km)
21 (1.49km)
21 (3.338km)
11 (33.587km)

Filter by dataset